Bristol, New Hampshire
Current Conditions -  °F | °C
As of 12:35 PM on Thursday 30 Oct 2014 (Local Time) from K1P1 Reporting Station
Scattered Clouds Scattered Clouds  
Wind Chill: 52°   Ceiling: Unl
Heat Index: 52°   Visibility: 10mi
Dew Point: 43°   Wind: 7mph
Humidity: 73%   Direction: 260°W
Pressure: 29.92"   Gusts: NA
Location:  43.6°N, 71.75°W
Report Text: K1P1 301635Z AUTO 26006KT 10SM SCT029 SCT035 SCT045 11/06 A2992 RMK AO2 T01090063
Loading
Personal Weather Stations






























Interactive Weather Map
Tropical Storm Tracking
New forecast layout! Learn more

10-Day Weather Forecast

Advertisements
Track Severe Weather on mobile